createdAt,value
2023-03-25T00:01:09.277Z,101913.66
2023-03-25T00:03:45.329Z,101907.66
2023-03-25T00:06:22.913Z,101904.03
2023-03-25T00:09:00.574Z,101913.78
2023-03-25T00:11:28.970Z,101924.19
2023-03-25T00:13:58.413Z,101923.34
2023-03-25T00:16:28.349Z,101926.88
2023-03-25T00:19:01.097Z,101928.19
2023-03-25T00:21:29.422Z,101930.81
2023-03-25T00:24:02.034Z,101927.25
2023-03-25T00:26:30.314Z,101930.69
2023-03-25T00:29:01.994Z,101928.03
2023-03-25T00:31:29.324Z,101925.31
2023-03-25T00:34:02.995Z,101924.25
2023-03-25T00:36:30.890Z,101911.13
2023-03-25T00:39:01.037Z,101910.31
2023-03-25T00:41:30.814Z,101913.75
2023-03-25T00:44:03.315Z,101915.56
2023-03-25T00:46:34.507Z,101908.31
2023-03-25T00:49:07.714Z,101909.97
2023-03-25T00:51:34.766Z,101916.22
2023-03-25T00:54:24.511Z,101926.47
2023-03-25T00:56:53.214Z,101926.31
2023-03-25T01:02:31.350Z,101932.34
2023-03-25T01:05:01.757Z,101939.13
2023-03-25T01:07:40.240Z,101948.88
2023-03-25T01:10:12.203Z,101953.22
2023-03-25T01:12:41.562Z,101956.75
2023-03-25T01:15:15.479Z,101954.16
2023-03-25T01:17:42.793Z,101933.13
2023-03-25T01:20:13.487Z,101926.97
2023-03-25T01:22:45.123Z,101947.75
2023-03-25T01:25:14.722Z,101951.41
2023-03-25T01:27:44.910Z,101939.13
2023-03-25T01:30:22.408Z,101950.47
2023-03-25T01:32:49.534Z,101943.50
2023-03-25T01:35:16.809Z,101938.19
2023-03-25T01:37:48.510Z,101956.72
2023-03-25T01:40:23.623Z,101971.34
2023-03-25T01:42:54.709Z,101982.78
2023-03-25T01:45:31.043Z,101983.56
2023-03-25T01:48:15.131Z,101984.44
2023-03-25T01:50:53.752Z,101982.50
2023-03-25T01:53:23.670Z,101983.47
2023-03-25T01:55:56.213Z,101986.88
2023-03-25T01:58:27.971Z,101965.06
2023-03-25T02:00:58.163Z,101959.88
2023-03-25T02:03:25.647Z,101948.28
2023-03-25T02:06:11.300Z,101950.91
2023-03-25T02:08:42.151Z,101951.56
2023-03-25T02:11:13.963Z,101951.78
2023-03-25T02:13:44.174Z,101960.31
2023-03-25T02:16:17.431Z,101959.66
2023-03-25T02:19:12.843Z,101954.91
2023-03-25T02:22:18.035Z,101955.50
2023-03-25T02:25:06.652Z,101946.72
2023-03-25T02:27:55.527Z,101944.81
2023-03-25T02:31:02.208Z,101946.78
2023-03-25T02:33:58.597Z,101945.88
2023-03-25T02:37:03.162Z,101957.19
2023-03-25T02:39:49.319Z,101965.78
2023-03-25T02:42:26.189Z,101961.44
2023-03-25T02:45:23.375Z,101948.25
2023-03-25T02:48:02.780Z,101954.41
2023-03-25T02:50:37.205Z,101949.94
2023-03-25T02:53:11.752Z,101957.97
2023-03-25T02:55:43.956Z,101964.84
2023-03-25T02:58:17.928Z,101956.03
2023-03-25T03:00:52.275Z,101956.22
2023-03-25T03:03:23.279Z,101961.25
2023-03-25T03:05:55.779Z,101965.66
2023-03-25T03:09:00.498Z,101967.13
2023-03-25T03:11:38.029Z,101961.69
2023-03-25T03:14:41.382Z,101960.22
2023-03-25T03:17:18.578Z,101962.59
2023-03-25T03:20:36.374Z,101963.25
2023-03-25T03:23:32.914Z,101967.50
2023-03-25T03:26:52.764Z,101968.53
2023-03-25T03:29:54.732Z,101977.19
2023-03-25T03:32:43.577Z,101979.78
2023-03-25T03:35:34.934Z,101983.16
2023-03-25T03:38:09.640Z,101982.97
2023-03-25T03:40:44.447Z,101979.59
2023-03-25T03:43:45.989Z,101986.56
2023-03-25T03:46:43.156Z,101989.91
2023-03-25T03:49:17.367Z,102001.25
2023-03-25T03:52:17.163Z,102000.38
2023-03-25T03:55:01.588Z,101993.25
2023-03-25T03:57:41.493Z,101993.28
2023-03-25T04:00:19.108Z,101976.50
2023-03-25T04:02:56.011Z,101978.19
2023-03-25T04:05:32.610Z,101986.09
2023-03-25T04:08:12.116Z,101990.84
2023-03-25T04:10:52.914Z,101994.56
2023-03-25T04:13:22.944Z,101998.88
2023-03-25T04:15:53.440Z,102000.63
2023-03-25T04:18:25.124Z,102001.72
2023-03-25T04:20:55.332Z,102011.16
2023-03-25T04:23:25.140Z,101999.94
2023-03-25T04:25:54.536Z,102012.97
2023-03-25T04:28:24.181Z,102014.78
2023-03-25T04:31:02.790Z,102008.31
2023-03-25T04:33:32.334Z,102019.03
2023-03-25T04:36:02.285Z,102011.78
2023-03-25T04:38:30.078Z,102022.94
2023-03-25T04:41:13.876Z,102022.25
2023-03-25T04:43:47.771Z,102031.81
2023-03-25T04:46:23.277Z,102027.06
2023-03-25T04:48:57.241Z,102022.94
2023-03-25T04:51:27.331Z,102018.69
2023-03-25T04:53:57.967Z,102021.97
2023-03-25T04:56:28.080Z,102030.91
2023-03-25T04:58:55.405Z,102037.88
2023-03-25T05:01:38.584Z,102028.88
2023-03-25T05:04:24.511Z,102025.53
2023-03-25T05:07:03.898Z,102037.63
2023-03-25T05:09:51.917Z,102039.44
2023-03-25T05:12:27.984Z,102035.63
2023-03-25T05:15:08.793Z,102044.47
2023-03-25T05:17:54.664Z,102047.44
2023-03-25T05:20:33.469Z,102057.44
2023-03-25T05:23:19.871Z,102067.53
2023-03-25T05:25:56.679Z,102060.69
2023-03-25T05:28:38.738Z,102064.75
2023-03-25T05:31:09.257Z,102050.94
2023-03-25T05:33:46.141Z,102053.63
2023-03-25T05:36:21.770Z,102062.84
2023-03-25T05:39:06.356Z,102058.69
2023-03-25T05:41:47.027Z,102063.16
2023-03-25T05:44:39.978Z,102059.53
2023-03-25T05:47:16.262Z,102070.00
2023-03-25T05:50:16.727Z,102084.84
2023-03-25T05:52:44.968Z,102088.44
2023-03-25T05:55:27.866Z,102095.19
2023-03-25T05:58:07.439Z,102102.28
2023-03-25T06:00:50.615Z,102104.00
2023-03-25T06:03:27.036Z,102101.66
2023-03-25T06:06:14.244Z,102100.66
2023-03-25T06:08:51.348Z,102088.78
2023-03-25T06:11:38.789Z,102102.91
2023-03-25T06:14:17.828Z,102104.00
2023-03-25T06:16:51.439Z,102098.00
2023-03-25T06:19:30.435Z,102104.81
2023-03-25T06:22:05.835Z,102103.09
2023-03-25T06:27:28.280Z,102112.78
2023-03-25T06:29:56.272Z,102106.72
2023-03-25T06:32:26.709Z,102117.31
2023-03-25T06:34:54.096Z,102116.00
2023-03-25T06:37:22.045Z,102116.00
2023-03-25T06:39:50.117Z,102122.06
2023-03-25T06:42:21.421Z,102127.28
2023-03-25T06:45:07.964Z,102133.72
2023-03-25T06:47:52.666Z,102140.00
2023-03-25T06:50:19.838Z,102149.78
2023-03-25T06:52:46.973Z,102145.47
2023-03-25T06:55:20.826Z,102146.06
2023-03-25T06:57:48.497Z,102156.81
2023-03-25T07:00:20.565Z,102160.53
2023-03-25T07:02:51.276Z,102159.16
2023-03-25T07:05:18.705Z,102162.78
2023-03-25T07:07:45.923Z,102160.06
2023-03-25T07:10:14.186Z,102171.25
2023-03-25T07:12:41.551Z,102176.53
2023-03-25T07:15:09.860Z,102176.63
2023-03-25T07:17:44.146Z,102173.44
2023-03-25T07:20:21.128Z,102186.34
2023-03-25T07:22:48.626Z,102186.91
2023-03-25T07:25:20.740Z,102192.66
2023-03-25T07:27:52.428Z,102193.97
2023-03-25T07:30:31.124Z,102196.00
2023-03-25T07:32:58.401Z,102197.34
2023-03-25T07:35:29.019Z,102195.59
2023-03-25T07:37:56.427Z,102198.16
2023-03-25T07:40:24.527Z,102197.75
2023-03-25T07:42:51.925Z,102204.56
2023-03-25T07:45:44.411Z,102207.44
2023-03-25T07:48:15.043Z,102213.22
2023-03-25T07:50:52.815Z,102224.00
2023-03-25T07:53:23.328Z,102229.25
2023-03-25T07:56:07.112Z,102225.59
2023-03-25T07:58:35.032Z,102231.97
2023-03-25T08:01:09.355Z,102233.91
2023-03-25T08:03:42.234Z,102241.19
2023-03-25T08:06:10.459Z,102248.22
2023-03-25T08:08:44.110Z,102237.06
2023-03-25T08:11:21.009Z,102235.94
2023-03-25T08:14:16.423Z,102244.88
2023-03-25T08:17:17.015Z,102235.94
2023-03-25T08:19:59.829Z,102247.66
2023-03-25T08:22:44.243Z,102239.50
2023-03-25T08:25:25.063Z,102233.16
2023-03-25T08:28:04.184Z,102222.22
2023-03-25T08:31:02.102Z,102218.25
2023-03-25T08:33:45.324Z,102211.09
2023-03-25T08:36:30.835Z,102213.00
2023-03-25T08:39:29.908Z,102213.31
2023-03-25T08:42:33.489Z,102212.59
2023-03-25T08:45:31.832Z,102214.84
2023-03-25T08:48:14.207Z,102211.22
2023-03-25T08:51:00.297Z,102208.28
2023-03-25T08:53:37.407Z,102212.91
2023-03-25T08:56:20.164Z,102209.81
2023-03-25T08:59:03.412Z,102214.53
2023-03-25T09:01:33.353Z,102216.28
2023-03-25T09:04:13.131Z,102228.75
2023-03-25T09:06:47.552Z,102225.00
2023-03-25T09:09:31.782Z,102216.28
2023-03-25T09:12:28.584Z,102227.59
2023-03-25T09:15:08.038Z,102228.50
2023-03-25T09:17:39.657Z,102245.13
2023-03-25T09:20:19.351Z,102238.78
2023-03-25T09:22:51.693Z,102220.28
2023-03-25T09:25:33.306Z,102232.00
2023-03-25T09:28:05.828Z,102221.72
2023-03-25T09:31:04.489Z,102219.78
2023-03-25T09:34:06.208Z,102226.75
2023-03-25T09:36:39.791Z,102222.22
2023-03-25T09:39:11.818Z,102238.50
2023-03-25T09:42:21.078Z,102232.91
2023-03-25T09:45:23.054Z,102239.19
2023-03-25T09:48:14.063Z,102238.22
2023-03-25T09:50:51.198Z,102235.47
2023-03-25T09:53:51.480Z,102246.44
2023-03-25T09:56:32.389Z,102233.72
2023-03-25T09:59:41.406Z,102226.03
2023-03-25T10:02:57.258Z,102230.19
2023-03-25T10:05:54.496Z,102218.81
2023-03-25T10:08:48.518Z,102215.44
2023-03-25T10:11:36.036Z,102218.47
2023-03-25T10:14:38.502Z,102221.31
2023-03-25T10:17:30.788Z,102216.19
2023-03-25T10:20:20.131Z,102232.56
2023-03-25T10:23:20.846Z,102234.88
2023-03-25T10:26:14.449Z,102223.28
2023-03-25T10:28:58.602Z,102224.09
2023-03-25T10:31:43.661Z,102213.31
2023-03-25T10:34:39.873Z,102222.13
2023-03-25T10:37:21.967Z,102239.16
2023-03-25T10:40:43.189Z,102214.97
2023-03-25T10:43:39.948Z,102226.72
2023-03-25T10:46:28.199Z,102213.91
2023-03-25T10:49:25.025Z,102228.28
2023-03-25T10:52:21.153Z,102223.94
2023-03-25T10:55:57.021Z,102222.63
2023-03-25T10:58:44.146Z,102220.94
2023-03-25T11:01:35.644Z,102222.16
2023-03-25T11:04:33.298Z,102220.72
2023-03-25T11:07:45.994Z,102212.00
2023-03-25T11:10:37.340Z,102217.19
2023-03-25T11:13:25.749Z,102203.88
2023-03-25T11:16:05.417Z,102198.81
2023-03-25T11:18:48.986Z,102209.28
2023-03-25T11:21:37.828Z,102198.53
2023-03-25T11:24:42.426Z,102197.50
2023-03-25T11:27:36.609Z,102180.84
2023-03-25T11:30:29.444Z,102192.25
2023-03-25T11:33:19.237Z,102186.84
2023-03-25T11:36:11.742Z,102194.50
2023-03-25T11:38:57.257Z,102200.94
2023-03-25T11:41:42.969Z,102193.13
2023-03-25T11:44:48.345Z,102194.34
2023-03-25T11:47:38.550Z,102182.94
2023-03-25T11:50:32.489Z,102174.66
2023-03-25T11:53:17.361Z,102169.97
2023-03-25T11:55:52.631Z,102163.50
2023-03-25T11:58:36.319Z,102154.91
2023-03-25T12:01:25.764Z,102153.59
2023-03-25T12:04:05.620Z,102163.34
2023-03-25T12:06:35.465Z,102148.19
2023-03-25T12:09:10.694Z,102146.81
2023-03-25T12:12:18.018Z,102142.97
2023-03-25T12:15:07.304Z,102132.41
2023-03-25T12:17:49.892Z,102137.47
2023-03-25T12:20:55.331Z,102129.25
2023-03-25T12:23:58.930Z,102121.91
2023-03-25T12:26:51.691Z,102112.88
2023-03-25T12:29:35.210Z,102101.25
2023-03-25T12:32:25.006Z,102108.47
2023-03-25T12:35:40.004Z,102091.84
2023-03-25T12:38:25.821Z,102097.03
2023-03-25T12:41:26.691Z,102088.53
2023-03-25T12:47:26.092Z,102077.63
2023-03-25T12:53:06.201Z,102067.78
2023-03-25T12:56:11.107Z,102063.00
2023-03-25T12:59:23.437Z,102065.16
2023-03-25T13:02:23.408Z,102055.41
2023-03-25T13:05:00.754Z,102048.72
2023-03-25T13:07:38.509Z,102056.72
2023-03-25T13:10:12.663Z,102046.25
2023-03-25T13:12:57.435Z,102024.88
2023-03-25T13:15:53.421Z,102033.75
2023-03-25T13:18:47.997Z,102028.63
2023-03-25T13:21:29.631Z,102032.16
2023-03-25T13:24:03.281Z,102027.78
2023-03-25T13:26:36.309Z,102024.22
2023-03-25T13:29:28.123Z,102026.72
2023-03-25T13:32:05.688Z,102026.25
2023-03-25T13:34:57.524Z,102023.09
2023-03-25T13:37:38.114Z,102016.97
2023-03-25T13:40:15.385Z,102020.06
2023-03-25T13:43:17.960Z,102013.47
2023-03-25T13:46:04.285Z,101998.69
2023-03-25T13:49:06.886Z,102010.69
2023-03-25T13:51:35.749Z,102026.25
2023-03-25T13:54:14.960Z,102008.66
2023-03-25T13:56:50.418Z,102007.25
2023-03-25T13:59:59.302Z,101995.00
2023-03-25T14:02:45.381Z,101994.94
2023-03-25T14:05:44.981Z,101993.34
2023-03-25T14:08:57.889Z,101985.50
2023-03-25T14:11:52.880Z,101984.59
2023-03-25T14:14:36.158Z,101979.16
2023-03-25T14:17:08.991Z,102008.81
2023-03-25T14:19:43.876Z,101991.63
2023-03-25T14:22:27.755Z,101978.56
2023-03-25T14:24:59.294Z,101982.50
2023-03-25T14:27:37.778Z,101969.19
2023-03-25T14:30:23.466Z,101980.13
2023-03-25T14:32:55.304Z,101979.84
2023-03-25T14:35:31.995Z,101973.47
2023-03-25T14:38:08.909Z,101965.75
2023-03-25T14:40:55.358Z,101960.41
2023-03-25T14:43:47.921Z,101955.91
2023-03-25T14:46:22.132Z,101963.94
2023-03-25T14:49:12.355Z,101950.81
2023-03-25T14:51:42.884Z,101944.31
2023-03-25T14:54:32.290Z,101956.16
2023-03-25T14:57:19.665Z,101939.31
2023-03-25T14:59:52.149Z,101953.72
2023-03-25T15:02:31.675Z,101939.59
2023-03-25T15:05:28.003Z,101941.53
2023-03-25T15:08:19.174Z,101941.00
2023-03-25T15:11:05.929Z,101933.97
2023-03-25T15:13:55.628Z,101923.66
2023-03-25T15:16:50.750Z,101912.25
2023-03-25T15:19:22.598Z,101919.28
2023-03-25T15:22:11.758Z,101931.13
2023-03-25T15:24:43.872Z,101926.75
2023-03-25T15:27:35.612Z,101921.78
2023-03-25T15:30:37.743Z,101912.91
2023-03-25T15:33:41.919Z,101899.03
2023-03-25T15:36:47.959Z,101893.38
2023-03-25T15:39:29.736Z,101894.81
2023-03-25T15:42:21.999Z,101896.47
2023-03-25T15:45:23.226Z,101895.72
2023-03-25T15:48:15.232Z,101891.88
2023-03-25T15:51:02.892Z,101887.38
2023-03-25T15:53:42.936Z,101876.75
2023-03-25T15:56:37.489Z,101863.69
2023-03-25T15:59:25.932Z,101856.59
2023-03-25T16:01:58.066Z,101862.81
2023-03-25T16:04:51.466Z,101859.53
2023-03-25T16:07:26.154Z,101854.59
2023-03-25T16:09:53.865Z,101839.88
2023-03-25T16:12:29.999Z,101841.88
2023-03-25T16:14:57.389Z,101842.34
2023-03-25T16:17:33.357Z,101836.03
2023-03-25T16:20:02.142Z,101826.41
2023-03-25T16:22:34.597Z,101822.25
2023-03-25T16:25:06.885Z,101824.53
2023-03-25T16:27:33.965Z,101825.72
2023-03-25T16:30:22.026Z,101828.69
2023-03-25T16:32:50.079Z,101822.59
2023-03-25T16:35:31.232Z,101815.13
2023-03-25T16:38:02.446Z,101809.03
2023-03-25T16:40:49.461Z,101812.69
2023-03-25T16:43:20.921Z,101805.59
2023-03-25T16:45:57.871Z,101806.50
2023-03-25T16:48:32.766Z,101812.88
2023-03-25T16:51:37.241Z,101819.00
2023-03-25T16:54:34.168Z,101823.38
2023-03-25T16:57:09.999Z,101808.81
2023-03-25T16:59:39.235Z,101805.78
2023-03-25T17:02:26.003Z,101813.66
2023-03-25T17:05:04.709Z,101815.47
2023-03-25T17:07:35.081Z,101803.44
2023-03-25T17:10:03.580Z,101799.41
2023-03-25T17:12:31.925Z,101799.94
2023-03-25T17:15:07.335Z,101795.03
2023-03-25T17:18:01.582Z,101787.06
2023-03-25T17:20:38.339Z,101795.00
2023-03-25T17:23:27.715Z,101797.25
2023-03-25T17:26:09.673Z,101802.03
2023-03-25T17:29:02.316Z,101804.28
2023-03-25T17:32:03.803Z,101791.63
2023-03-25T17:35:07.839Z,101795.00
2023-03-25T17:37:46.126Z,101788.06
2023-03-25T17:40:31.814Z,101788.03
2023-03-25T17:43:20.133Z,101790.25
2023-03-25T17:46:12.720Z,101792.59
2023-03-25T17:48:49.276Z,101789.78
2023-03-25T17:51:23.665Z,101798.31
2023-03-25T17:54:02.896Z,101794.94
2023-03-25T17:56:42.713Z,101792.56
2023-03-25T17:59:29.396Z,101785.91
2023-03-25T18:02:02.203Z,101798.78
2023-03-25T18:04:42.830Z,101789.16
2023-03-25T18:07:33.318Z,101794.09
2023-03-25T18:10:20.507Z,101793.44
2023-03-25T18:12:54.093Z,101784.69
2023-03-25T18:15:26.829Z,101790.81
2023-03-25T18:18:07.305Z,101797.28
2023-03-25T18:20:44.109Z,101794.16
2023-03-25T18:23:18.733Z,101794.59
2023-03-25T18:26:05.703Z,101793.97
2023-03-25T18:28:45.984Z,101793.06
2023-03-25T18:31:19.035Z,101791.22
2023-03-25T18:33:50.525Z,101793.31
2023-03-25T18:36:18.898Z,101793.13
2023-03-25T18:38:46.245Z,101802.66
2023-03-25T18:41:17.644Z,101804.97
2023-03-25T18:43:47.786Z,101805.97
2023-03-25T18:46:15.948Z,101806.13
2023-03-25T18:48:43.766Z,101802.69
2023-03-25T18:51:15.116Z,101800.19
2023-03-25T18:53:45.301Z,101804.81
2023-03-25T18:56:17.227Z,101806.72
2023-03-25T18:58:47.237Z,101809.34
2023-03-25T19:01:16.287Z,101807.38
2023-03-25T19:03:43.670Z,101805.72
2023-03-25T19:06:17.980Z,101809.53
2023-03-25T19:08:47.199Z,101816.63
2023-03-25T19:11:22.163Z,101814.03
2023-03-25T19:14:04.478Z,101817.56
2023-03-25T19:16:32.433Z,101809.91
2023-03-25T19:19:01.555Z,101814.41
2023-03-25T19:21:39.469Z,101821.00
2023-03-25T19:24:07.399Z,101817.41
2023-03-25T19:26:39.622Z,101804.38
2023-03-25T19:29:09.072Z,101808.47
2023-03-25T19:31:41.926Z,101812.72
2023-03-25T19:34:14.830Z,101814.78
2023-03-25T19:36:49.396Z,101800.16
2023-03-25T19:39:24.138Z,101796.22
2023-03-25T19:42:01.130Z,101796.09
2023-03-25T19:44:34.824Z,101796.44
2023-03-25T19:47:05.139Z,101796.09
2023-03-25T19:49:40.166Z,101797.00
2023-03-25T19:52:08.844Z,101787.13
2023-03-25T19:54:50.866Z,101791.25
2023-03-25T19:57:27.876Z,101782.34
2023-03-25T20:00:02.513Z,101787.19
2023-03-25T20:02:48.348Z,101786.53
2023-03-25T20:05:31.131Z,101777.28
2023-03-25T20:08:14.400Z,101794.47
2023-03-25T20:10:41.759Z,101785.25
2023-03-25T20:13:10.307Z,101779.94
2023-03-25T20:15:43.873Z,101782.69
2023-03-25T20:18:11.339Z,101779.31
2023-03-25T20:20:41.250Z,101781.25
2023-03-25T20:23:09.042Z,101775.78
2023-03-25T20:25:39.477Z,101785.34
2023-03-25T20:28:10.024Z,101781.25
2023-03-25T20:30:39.981Z,101774.34
2023-03-25T20:33:11.874Z,101767.44
2023-03-25T20:35:44.083Z,101764.69
2023-03-25T20:38:11.857Z,101758.59
2023-03-25T20:40:45.044Z,101753.41
2023-03-25T20:43:16.003Z,101754.31
2023-03-25T20:45:46.296Z,101751.81
2023-03-25T20:48:16.890Z,101750.88
2023-03-25T20:50:44.592Z,101757.88
2023-03-25T20:53:18.110Z,101753.53
2023-03-25T20:55:48.112Z,101749.22
2023-03-25T20:58:16.183Z,101743.09
2023-03-25T21:00:47.368Z,101743.94
2023-03-25T21:03:21.215Z,101742.19
2023-03-25T21:05:50.044Z,101743.97
2023-03-25T21:08:17.746Z,101736.03
2023-03-25T21:10:48.290Z,101733.31
2023-03-25T21:13:20.024Z,101730.81
2023-03-25T21:15:53.346Z,101727.38
2023-03-25T21:18:23.353Z,101727.28
2023-03-25T21:20:52.959Z,101722.13
2023-03-25T21:23:29.530Z,101725.66
2023-03-25T21:26:03.681Z,101730.84
2023-03-25T21:28:33.828Z,101722.97
2023-03-25T21:31:17.338Z,101721.09
2023-03-25T21:33:50.726Z,101726.50
2023-03-25T21:36:29.495Z,101724.59
2023-03-25T21:39:08.037Z,101721.22
2023-03-25T21:41:36.594Z,101719.28
2023-03-25T21:44:06.899Z,101718.41
2023-03-25T21:46:34.689Z,101721.88
2023-03-25T21:49:02.631Z,101724.50
2023-03-25T21:51:42.716Z,101719.16
2023-03-25T21:54:11.184Z,101718.41
2023-03-25T21:56:40.396Z,101721.78
2023-03-25T21:59:07.907Z,101714.84
2023-03-25T22:01:39.113Z,101718.28
2023-03-25T22:04:06.512Z,101716.53
2023-03-25T22:06:35.964Z,101720.94
2023-03-25T22:09:06.828Z,101720.09
2023-03-25T22:11:37.877Z,101712.84
2023-03-25T22:14:06.122Z,101710.22
2023-03-25T22:16:33.878Z,101711.13
2023-03-25T22:19:01.474Z,101709.38
2023-03-25T22:21:49.961Z,101709.34
2023-03-25T22:24:19.492Z,101705.81
2023-03-25T22:26:46.891Z,101703.97
2023-03-25T22:29:14.357Z,101702.16
2023-03-25T22:31:44.463Z,101706.44
2023-03-25T22:34:17.338Z,101703.84
2023-03-25T22:36:51.116Z,101701.22
2023-03-25T22:39:25.607Z,101698.66
2023-03-25T22:41:59.251Z,101701.13
2023-03-25T22:44:27.964Z,101702.78
2023-03-25T22:46:58.499Z,101702.78
2023-03-25T22:49:28.409Z,101695.59
2023-03-25T22:51:58.253Z,101697.59
2023-03-25T22:54:25.948Z,101690.59
2023-03-25T22:56:56.020Z,101687.97
2023-03-25T22:59:23.637Z,101687.13
2023-03-25T23:01:50.852Z,101689.72
2023-03-25T23:04:18.103Z,101685.28
2023-03-25T23:06:53.882Z,101682.72
2023-03-25T23:09:42.054Z,101675.72
2023-03-25T23:12:15.260Z,101663.44
2023-03-25T23:14:47.711Z,101662.59
2023-03-25T23:17:18.940Z,101658.16
2023-03-25T23:19:47.314Z,101659.06
2023-03-25T23:22:17.475Z,101663.38
2023-03-25T23:24:45.007Z,101662.47
2023-03-25T23:27:18.285Z,101659.78
2023-03-25T23:29:45.640Z,101663.19
2023-03-25T23:32:22.129Z,101657.16
2023-03-25T23:34:49.653Z,101659.75
2023-03-25T23:37:20.470Z,101656.31
2023-03-25T23:39:49.989Z,101658.97
2023-03-25T23:42:19.663Z,101659.00
2023-03-25T23:44:48.800Z,101653.78
2023-03-25T23:47:16.515Z,101652.03
2023-03-25T23:49:44.587Z,101652.13
2023-03-25T23:52:14.907Z,101650.28
2023-03-25T23:54:43.210Z,101646.78
2023-03-25T23:57:10.629Z,101642.50
2023-03-25T23:59:44.617Z,101638.94
